Time;durP1;ratioP1;P1;durP2;ratioP2;P2;SDS_P1;SDS_P2;PMS_P1;PMS_P2;Temp;Humidity;BMP_temperature;BMP_pressure;BME280_temperature;BME280_humidity;BME280_pressure;Samples;Min_cycle;Max_cycle;Signal;HPM_P1;HPM_P2
2024/01/17 00:02:04;;;;;;;0.90;0.77;;;;;;;24.60;26.28;97821.19;7393180;19;20006;-93
2024/01/17 00:04:30;;;;;;;0.90;0.90;;;;;;;25.53;25.45;97816.63;7394307;19;20011;-93
2024/01/17 00:06:57;;;;;;;2.47;1.13;;;;;;;24.79;26.05;97815.22;7399079;19;20034;-93
2024/01/17 00:09:23;;;;;;;2.55;1.02;;;;;;;24.63;25.93;97805.69;7394459;19;20022;-92
2024/01/17 00:11:51;;;;;;;0.32;0.32;;;;;;;24.16;25.97;97812.81;7393511;19;20018;-93
2024/01/17 00:14:17;;;;;;;10.02;1.88;;;;;;;24.16;26.29;97801.44;7392552;19;20401;-94
2024/01/17 00:16:43;;;;;;;3.30;1.60;;;;;;;23.85;26.33;97793.13;7396985;19;20532;-93
2024/01/17 00:19:10;;;;;;;5.50;1.42;;;;;;;24.73;25.80;97795.63;7394872;19;20014;-93
2024/01/17 00:21:36;;;;;;;12.45;1.63;;;;;;;25.33;25.18;97804.09;7393935;19;20088;-93
2024/01/17 00:24:02;;;;;;;0.60;0.60;;;;;;;25.26;25.48;97805.13;7395430;19;20043;-93
2024/01/17 00:26:28;;;;;;;0.88;0.88;;;;;;;26.28;24.76;97810.06;7394639;19;20015;-93
2024/01/17 00:28:55;;;;;;;2.63;1.23;;;;;;;27.36;23.58;97804.78;7397546;19;20010;-93
2024/01/17 00:31:23;;;;;;;1.10;0.68;;;;;;;28.03;23.18;97805.81;7393280;19;20037;-93
2024/01/17 00:33:49;;;;;;;0.68;0.68;;;;;;;27.68;23.46;97818.50;7390645;19;20022;-93
2024/01/17 00:36:16;;;;;;;1.45;0.93;;;;;;;27.79;23.25;97811.13;7393022;19;20011;-93
2024/01/17 00:38:42;;;;;;;1.17;0.75;;;;;;;27.26;23.73;97827.16;7390636;19;20042;-93
2024/01/17 00:41:08;;;;;;;1.42;1.00;;;;;;;26.83;24.13;97819.31;7390809;19;20476;-93
2024/01/17 00:43:34;;;;;;;0.60;0.60;;;;;;;25.62;24.79;97822.81;7389265;19;20018;-93
2024/01/17 00:46:01;;;;;;;17.55;0.98;;;;;;;25.49;25.12;97815.69;7395309;19;20022;-93
2024/01/17 00:48:27;;;;;;;0.40;0.40;;;;;;;26.10;24.58;97814.03;7396884;19;20039;-93
2024/01/17 00:50:53;;;;;;;1.88;0.50;;;;;;;26.01;25.08;97817.81;7396624;19;20438;-94
2024/01/17 00:53:22;;;;;;;1.55;0.95;;;;;;;25.62;25.04;97802.84;7395871;19;20015;-93
2024/01/17 00:55:48;;;;;;;0.10;0.10;;;;;;;25.89;25.08;97805.75;7395670;19;20011;-92
2024/01/17 00:58:14;;;;;;;0.65;0.50;;;;;;;25.86;24.69;97807.03;7391460;19;20070;-93
2024/01/17 01:00:40;;;;;;;0.70;0.70;;;;;;;25.87;25.10;97808.50;7391261;19;20527;-93
2024/01/17 01:03:07;;;;;;;0.25;0.25;;;;;;;25.71;25.25;97802.66;7391600;19;20022;-93
2024/01/17 01:05:33;;;;;;;0.65;0.65;;;;;;;25.64;25.15;97802.97;7392834;19;20033;-93
2024/01/17 01:07:59;;;;;;;1.45;0.63;;;;;;;25.25;25.71;97795.06;7395188;19;20064;-93
2024/01/17 01:10:25;;;;;;;0.47;0.47;;;;;;;25.05;25.90;97796.81;7389747;19;20364;-92
2024/01/17 01:12:51;;;;;;;1.17;1.10;;;;;;;25.18;25.77;97798.22;7391515;19;20047;-93
2024/01/17 01:15:17;;;;;;;1.45;0.90;;;;;;;23.97;26.31;97791.03;7390896;19;20022;-93
2024/01/17 01:17:43;;;;;;;6.70;2.00;;;;;;;24.90;26.14;97788.06;7391994;19;20023;-92
2024/01/17 01:20:10;;;;;;;0.30;0.30;;;;;;;25.27;25.96;97783.06;7393325;19;20036;-93
2024/01/17 01:22:36;;;;;;;0.25;0.25;;;;;;;25.60;25.46;97783.50;7393721;19;20478;-93
2024/01/17 01:25:02;;;;;;;1.35;1.25;;;;;;;25.05;25.71;97788.25;7393975;19;20437;-93
2024/01/17 01:27:29;;;;;;;2.58;1.65;;;;;;;25.24;25.72;97779.38;7396544;19;20021;-92
2024/01/17 01:29:55;;;;;;;4.78;0.77;;;;;;;24.33;26.38;97792.50;7393228;19;20019;-93
2024/01/17 01:32:21;;;;;;;0.43;0.43;;;;;;;24.42;26.28;97780.25;7394025;19;20078;-93
2024/01/17 01:34:47;;;;;;;0.20;0.20;;;;;;;24.46;26.18;97780.47;7390094;19;20011;-92
2024/01/17 01:37:13;;;;;;;1.02;1.00;;;;;;;24.56;26.50;97776.13;7392975;19;20361;-92
2024/01/17 01:39:40;;;;;;;1.20;0.90;;;;;;;24.62;26.07;97776.47;7393338;19;20030;-92
2024/01/17 01:42:07;;;;;;;0.20;0.10;;;;;;;24.67;26.32;97774.59;7391691;19;20030;-92
2024/01/17 01:44:33;;;;;;;1.35;0.80;;;;;;;24.40;26.32;97771.59;7391193;19;20380;-93
2024/01/17 01:46:59;;;;;;;2.80;0.82;;;;;;;24.42;26.59;97774.56;7394339;19;20144;-92
2024/01/17 01:49:26;;;;;;;0.28;0.28;;;;;;;24.85;26.03;97772.84;7391047;19;20487;-92
2024/01/17 01:51:53;;;;;;;4.40;0.40;;;;;;;24.38;26.54;97765.78;7391025;19;20053;-93
2024/01/17 01:54:22;;;;;;;1.30;0.70;;;;;;;25.52;25.97;97761.00;7390334;19;20340;-93
2024/01/17 01:56:50;;;;;;;0.28;0.28;;;;;;;24.53;26.62;97753.88;7391795;19;20014;-92
2024/01/17 01:59:17;;;;;;;3.47;0.57;;;;;;;24.73;26.08;97746.50;7390861;19;20054;-93
2024/01/17 02:01:43;;;;;;;1.13;0.50;;;;;;;24.59;26.31;97757.06;7394951;19;20026;-92
2024/01/17 02:04:10;;;;;;;0.30;0.30;;;;;;;25.58;25.46;97760.59;7398177;19;20031;-92
2024/01/17 02:06:38;;;;;;;1.98;0.77;;;;;;;25.30;25.97;97753.31;7401206;19;20019;-94
2024/01/17 02:09:04;;;;;;;1.23;1.17;;;;;;;24.98;26.00;97755.09;7396535;19;20033;-93
2024/01/17 02:11:31;;;;;;;2.53;1.02;;;;;;;25.48;25.70;97746.53;7391164;19;20018;-93
2024/01/17 02:13:58;;;;;;;0.28;0.28;;;;;;;25.29;25.81;97746.13;7391284;19;20018;-93
2024/01/17 02:16:25;;;;;;;1.45;1.08;;;;;;;25.41;25.56;97741.84;7389074;19;20031;-92
2024/01/17 02:18:52;;;;;;;2.75;0.60;;;;;;;24.92;26.27;97742.63;7389835;19;20100;-93
2024/01/17 02:21:18;;;;;;;0.57;0.50;;;;;;;24.58;26.54;97729.97;7390756;19;20021;-93
2024/01/17 02:23:52;;;;;;;1.17;0.43;;;;;;;24.46;26.58;97726.41;7395947;19;20011;-93
2024/01/17 02:26:18;;;;;;;1.17;0.50;;;;;;;23.85;27.29;97734.16;7399245;19;20464;-93
2024/01/17 02:28:45;;;;;;;0.30;0.30;;;;;;;24.63;26.37;97735.28;7400580;19;20496;-93
2024/01/17 02:31:13;;;;;;;0.43;0.43;;;;;;;24.59;26.22;97723.66;7399086;19;20025;-92
2024/01/17 02:33:44;;;;;;;1.45;1.25;;;;;;;25.27;26.03;97729.69;7394525;19;20019;-93
2024/01/17 02:36:10;;;;;;;1.50;0.75;;;;;;;24.91;26.25;97724.78;7396606;19;20021;-92
2024/01/17 02:38:36;;;;;;;9.52;1.13;;;;;;;24.99;26.01;97719.56;7394758;19;20018;-94
2024/01/17 02:41:02;;;;;;;1.33;1.23;;;;;;;24.75;26.30;97715.34;7393743;19;20108;-93
2024/01/17 02:43:28;;;;;;;0.15;0.15;;;;;;;24.63;26.60;97706.81;7395347;19;20018;-93
2024/01/17 02:45:54;;;;;;;0.40;0.40;;;;;;;24.77;26.12;97712.59;7398079;19;20050;-93
2024/01/17 02:48:21;;;;;;;0.28;0.28;;;;;;;24.66;26.36;97710.50;7396908;19;20386;-93
2024/01/17 02:50:47;;;;;;;1.00;0.73;;;;;;;25.72;25.54;97701.50;7395669;19;20081;-93
2024/01/17 02:53:13;;;;;;;2.00;0.52;;;;;;;25.32;25.61;97688.63;7392922;19;20303;-94
2024/01/17 02:55:39;;;;;;;0.65;0.60;;;;;;;25.42;25.92;97689.22;7392972;19;20098;-92
2024/01/17 02:58:05;;;;;;;1.52;1.15;;;;;;;25.38;25.60;97694.63;7395232;19;20027;-93
2024/01/17 03:00:33;;;;;;;1.05;0.30;;;;;;;24.82;26.36;97682.97;7393882;19;20019;-92
2024/01/17 03:02:59;;;;;;;0.40;0.40;;;;;;;24.93;26.23;97684.31;7391864;19;20019;-92
2024/01/17 03:05:25;;;;;;;1.27;0.55;;;;;;;25.34;25.69;97677.31;7394849;19;20045;-93
2024/01/17 03:07:51;;;;;;;0.63;0.63;;;;;;;25.88;25.42;97668.09;7398300;19;20346;-93
2024/01/17 03:10:17;;;;;;;3.72;1.55;;;;;;;26.71;25.02;97658.00;7394867;19;20030;-90
2024/01/17 03:12:43;;;;;;;0.60;0.40;;;;;;;25.63;25.56;97659.66;7394057;19;20018;-93
2024/01/17 03:15:10;;;;;;;0.60;0.60;;;;;;;24.94;26.23;97665.84;7393120;19;20025;-92
2024/01/17 03:17:38;;;;;;;0.45;0.45;;;;;;;24.91;26.37;97664.22;7397781;19;20015;-92
2024/01/17 03:20:06;;;;;;;3.50;1.40;;;;;;;25.04;25.91;97652.88;7394766;19;20018;-93
2024/01/17 03:22:32;;;;;;;0.47;0.47;;;;;;;24.75;26.34;97641.31;7393674;19;20480;-92
2024/01/17 03:24:59;;;;;;;2.58;1.23;;;;;;;25.33;25.96;97655.91;7394930;19;20125;-92
2024/01/17 03:27:25;;;;;;;1.20;0.68;;;;;;;24.88;26.16;97654.13;7395236;19;20026;-93
2024/01/17 03:29:51;;;;;;;1.65;0.65;;;;;;;25.19;25.81;97655.13;7396343;19;20031;-92
2024/01/17 03:32:17;;;;;;;2.38;1.55;;;;;;;24.78;26.14;97642.88;7397412;19;20054;-91
2024/01/17 03:34:43;;;;;;;1.40;0.63;;;;;;;25.37;26.12;97641.88;7393459;19;20493;-91
2024/01/17 03:37:09;;;;;;;0.10;0.10;;;;;;;25.66;25.61;97641.28;7401485;19;20028;-92
2024/01/17 03:39:35;;;;;;;1.13;0.38;;;;;;;25.72;25.59;97635.91;7397490;19;20011;-92
2024/01/17 03:42:02;;;;;;;1.33;0.68;;;;;;;26.44;25.15;97641.72;7398172;19;20027;-92
2024/01/17 03:44:28;;;;;;;2.00;0.68;;;;;;;26.02;25.45;97639.56;7396482;19;20015;-91
2024/01/17 03:46:54;;;;;;;0.75;0.65;;;;;;;25.68;25.92;97637.81;7398031;19;20015;-92
2024/01/17 03:49:20;;;;;;;0.50;0.50;;;;;;;25.62;25.79;97640.34;7396579;19;20014;-92
2024/01/17 03:51:46;;;;;;;0.40;0.40;;;;;;;26.57;25.02;97632.38;7395904;19;20081;-92
2024/01/17 03:54:12;;;;;;;0.22;0.22;;;;;;;26.34;25.00;97638.34;7395495;19;20038;-91
2024/01/17 03:56:38;;;;;;;0.55;0.45;;;;;;;25.49;25.47;97624.72;7396158;19;20014;-91
2024/01/17 03:59:05;;;;;;;0.40;0.40;;;;;;;25.57;25.46;97628.00;7398831;19;20014;-91
2024/01/17 04:01:32;;;;;;;0.77;0.45;;;;;;;24.90;26.40;97626.50;7400303;19;20094;-92
2024/01/17 04:03:58;;;;;;;2.72;0.75;;;;;;;25.89;25.67;97623.22;7390930;19;20015;-92
2024/01/17 04:06:25;;;;;;;3.95;0.47;;;;;;;26.21;25.29;97619.16;7394304;19;20023;-92
2024/01/17 04:08:51;;;;;;;0.32;0.32;;;;;;;25.74;25.28;97623.84;7399200;19;20014;-92
2024/01/17 04:11:17;;;;;;;0.17;0.17;;;;;;;24.79;26.07;97616.66;7393496;19;20011;-91
2024/01/17 04:13:44;;;;;;;1.50;1.23;;;;;;;25.61;25.75;97610.34;7391924;19;20018;-92
2024/01/17 04:16:11;;;;;;;0.43;0.43;;;;;;;28.01;24.20;97602.53;7390398;19;20032;-92
2024/01/17 04:18:37;;;;;;;0.52;0.50;;;;;;;28.77;23.50;97599.25;7394619;19;20393;-92
2024/01/17 04:21:03;;;;;;;0.95;0.95;;;;;;;29.62;22.90;97591.75;7391454;19;20018;-92
2024/01/17 04:23:30;;;;;;;0.75;0.55;;;;;;;27.64;23.36;97600.22;7390052;19;20524;-92
2024/01/17 04:25:56;;;;;;;0.75;0.60;;;;;;;26.59;24.41;97601.06;7393203;19;20020;-90
2024/01/17 04:28:23;;;;;;;1.80;0.73;;;;;;;26.24;24.54;97603.63;7396514;19;20513;-92
2024/01/17 04:30:49;;;;;;;4.13;0.65;;;;;;;26.14;24.50;97594.56;7392777;19;20041;-92
2024/01/17 04:33:16;;;;;;;1.23;0.80;;;;;;;26.35;24.26;97599.16;7390603;19;20022;-92
2024/01/17 04:35:42;;;;;;;1.65;1.08;;;;;;;26.18;24.36;97586.22;7389992;19;20023;-93
2024/01/17 04:38:08;;;;;;;0.68;0.40;;;;;;;28.66;22.72;97580.19;7394434;19;20031;-92
2024/01/17 04:40:34;;;;;;;1.35;0.60;;;;;;;29.18;22.42;97582.97;7389673;19;20011;-92
2024/01/17 04:43:00;;;;;;;0.50;0.50;;;;;;;28.37;22.69;97581.88;7392281;19;20081;-93
2024/01/17 04:45:30;;;;;;;1.55;0.80;;;;;;;28.05;22.83;97571.22;7392197;19;20014;-93
2024/01/17 04:47:56;;;;;;;0.20;0.20;;;;;;;27.10;23.55;97566.28;7393942;19;20022;-93
2024/01/17 04:50:22;;;;;;;1.75;1.10;;;;;;;28.26;22.66;97559.97;7392139;19;20019;-91
2024/01/17 04:52:50;;;;;;;1.10;0.73;;;;;;;26.91;23.44;97568.34;7390692;19;20031;-92
2024/01/17 04:55:16;;;;;;;0.77;0.77;;;;;;;25.36;24.44;97557.03;7391609;19;20078;-92
2024/01/17 04:57:42;;;;;;;0.10;0.10;;;;;;;24.41;25.13;97565.34;7393445;19;20366;-92
2024/01/17 05:00:12;;;;;;;0.63;0.63;;;;;;;26.10;23.67;97557.25;7389948;19;20151;-93
2024/01/17 05:02:38;;;;;;;0.20;0.20;;;;;;;26.11;23.52;97547.34;7390339;19;20024;-92
2024/01/17 05:05:05;;;;;;;0.57;0.57;;;;;;;25.16;24.30;97551.00;7391340;19;20041;-92
2024/01/17 05:07:32;;;;;;;1.10;0.75;;;;;;;24.45;25.02;97542.81;7395358;19;20507;-92
2024/01/17 05:09:58;;;;;;;4.57;0.95;;;;;;;23.90;25.32;97536.88;7391542;19;20010;-92
2024/01/17 05:12:24;;;;;;;0.38;0.38;;;;;;;24.08;25.21;97540.03;7390077;19;20010;-92
2024/01/17 05:14:50;;;;;;;10.30;1.33;;;;;;;24.15;25.00;97539.00;7389071;19;20018;-92
2024/01/17 05:17:16;;;;;;;1.27;0.52;;;;;;;24.15;25.07;97527.63;7392080;19;20022;-91
2024/01/17 05:19:43;;;;;;;0.57;0.57;;;;;;;24.15;24.95;97526.91;7390096;19;20022;-92
2024/01/17 05:22:12;;;;;;;1.02;0.93;;;;;;;23.88;25.17;97518.94;7389803;19;20033;-92
2024/01/17 05:24:38;;;;;;;2.22;0.75;;;;;;;23.68;24.97;97521.38;7390110;19;20044;-92
2024/01/17 05:27:04;;;;;;;0.90;0.65;;;;;;;22.95;25.80;97519.13;7390284;19;20026;-92
2024/01/17 05:29:32;;;;;;;1.48;0.80;;;;;;;22.50;26.23;97518.44;7389772;19;20037;-92
2024/01/17 05:31:59;;;;;;;0.90;0.35;;;;;;;22.14;26.62;97510.47;7389528;19;20010;-92
2024/01/17 05:34:25;;;;;;;0.20;0.20;;;;;;;21.74;26.56;97513.50;7388499;19;20026;-92
2024/01/17 05:36:51;;;;;;;1.48;0.85;;;;;;;21.87;26.69;97505.19;7390793;19;20364;-92
2024/01/17 05:39:17;;;;;;;1.95;1.02;;;;;;;21.86;26.69;97512.22;7390209;19;20018;-92
2024/01/17 05:41:43;;;;;;;0.57;0.57;;;;;;;21.36;26.70;97514.50;7390017;19;20026;-91
2024/01/17 05:44:09;;;;;;;0.70;0.70;;;;;;;21.06;27.14;97509.63;7390266;19;20021;-91
2024/01/17 05:46:35;;;;;;;1.83;1.05;;;;;;;20.59;27.59;97517.00;7389936;19;20017;-92
2024/01/17 05:49:02;;;;;;;1.40;1.17;;;;;;;20.96;27.33;97506.81;7394216;19;20011;-91
2024/01/17 05:51:28;;;;;;;0.68;0.68;;;;;;;20.36;27.48;97509.00;7390952;19;20019;-92
2024/01/17 05:53:54;;;;;;;9.48;2.10;;;;;;;20.16;27.68;97512.47;7388779;19;20396;-92
2024/01/17 05:56:21;;;;;;;0.95;0.82;;;;;;;21.19;27.10;97508.38;7387574;19;20021;-91
2024/01/17 05:58:47;;;;;;;3.13;1.35;;;;;;;20.35;27.54;97490.59;7391461;19;20019;-91
2024/01/17 06:01:13;;;;;;;3.55;1.13;;;;;;;20.23;27.51;97500.25;7388075;19;20514;-92
2024/01/17 06:03:40;;;;;;;0.85;0.63;;;;;;;21.39;26.68;97501.25;7387728;19;20039;-93
2024/01/17 06:06:07;;;;;;;7.13;1.48;;;;;;;20.23;27.45;97500.25;7389597;19;20406;-92
2024/01/17 06:08:33;;;;;;;1.75;1.52;;;;;;;20.01;27.90;97496.56;7396867;19;20025;-94
2024/01/17 06:11:01;;;;;;;1.65;0.60;;;;;;;20.58;27.42;97501.34;7389861;19;20017;-92
2024/01/17 06:13:27;;;;;;;9.25;1.30;;;;;;;20.54;27.47;97489.75;7392292;19;20037;-93
2024/01/17 06:15:53;;;;;;;1.33;1.15;;;;;;;20.00;27.80;97505.66;7386579;19;20026;-90
2024/01/17 06:18:19;;;;;;;0.32;0.25;;;;;;;19.87;28.30;97495.56;7389992;19;20026;-91
2024/01/17 06:20:47;;;;;;;1.10;0.65;;;;;;;19.71;27.89;97496.47;7387802;19;20018;-91
2024/01/17 06:23:13;;;;;;;1.13;1.10;;;;;;;20.59;27.28;97497.19;7388535;19;20045;-91
2024/01/17 06:25:39;;;;;;;0.65;0.55;;;;;;;19.91;27.81;97503.56;7389207;19;20080;-91
2024/01/17 06:28:05;;;;;;;1.05;0.80;;;;;;;20.70;27.12;97505.03;7389893;19;20018;-91
2024/01/17 06:30:31;;;;;;;0.60;0.60;;;;;;;19.78;28.13;97504.78;7392422;19;20015;-91
2024/01/17 06:32:57;;;;;;;1.65;0.80;;;;;;;20.34;27.48;97503.22;7388324;19;20464;-91
2024/01/17 06:35:24;;;;;;;5.82;1.55;;;;;;;21.44;26.63;97494.50;7387706;19;20010;-91
2024/01/17 06:37:50;;;;;;;10.32;1.40;;;;;;;22.07;26.16;97493.69;7390748;19;20014;-91
2024/01/17 06:40:16;;;;;;;1.35;0.63;;;;;;;22.04;26.46;97494.91;7391444;19;20018;-89
2024/01/17 06:42:42;;;;;;;3.35;0.93;;;;;;;22.23;26.04;97495.44;7387965;19;20044;-91
2024/01/17 06:45:10;;;;;;;2.75;1.85;;;;;;;22.28;25.71;97494.34;7388431;19;20014;-91
2024/01/17 06:47:36;;;;;;;0.47;0.47;;;;;;;22.29;26.01;97492.25;7389642;19;20021;-91
2024/01/17 06:50:02;;;;;;;4.80;2.72;;;;;;;22.51;25.42;97502.16;7393540;19;20062;-91
2024/01/17 06:52:28;;;;;;;1.05;0.90;;;;;;;22.45;25.55;97499.69;7387307;19;20488;-91
2024/01/17 06:54:54;;;;;;;0.47;0.47;;;;;;;22.57;25.35;97494.75;7386964;19;20015;-92
2024/01/17 06:57:21;;;;;;;5.32;2.00;;;;;;;22.56;25.52;97493.28;7389286;19;20013;-91
2024/01/17 06:59:48;;;;;;;0.80;0.80;;;;;;;22.65;25.31;97494.56;7393947;19;20499;-91
2024/01/17 07:02:14;;;;;;;4.30;1.15;;;;;;;22.51;25.40;97496.47;7388718;19;20019;-92
2024/01/17 07:04:42;;;;;;;2.13;1.85;;;;;;;22.32;25.43;97491.78;7388948;19;20348;-91
2024/01/17 07:07:08;;;;;;;2.90;1.02;;;;;;;22.79;25.21;97497.50;7390452;19;20018;-91
2024/01/17 07:09:34;;;;;;;2.05;1.30;;;;;;;22.44;25.45;97498.19;7390417;19;20018;-92
2024/01/17 07:12:01;;;;;;;1.02;0.63;;;;;;;22.81;25.12;97500.47;7397259;19;20051;-92
2024/01/17 07:14:27;;;;;;;4.45;1.60;;;;;;;21.63;25.77;97497.19;7395001;19;20015;-91
2024/01/17 07:16:54;;;;;;;2.80;2.08;;;;;;;21.69;25.78;97501.16;7396497;19;20022;-91
2024/01/17 07:19:20;;;;;;;0.80;0.80;;;;;;;20.63;26.42;97508.03;7398268;19;20014;-91
2024/01/17 07:21:46;;;;;;;2.70;1.58;;;;;;;21.79;26.05;97495.38;7396198;19;20014;-94
2024/01/17 07:24:12;;;;;;;1.55;1.45;;;;;;;21.57;25.92;97499.63;7396963;19;20023;-92
2024/01/17 07:26:38;;;;;;;2.20;0.82;;;;;;;23.29;24.61;97504.13;7394319;19;20014;-93
2024/01/17 07:29:05;;;;;;;4.03;1.88;;;;;;;22.67;24.66;97493.94;7397655;19;20049;-92
2024/01/17 07:31:31;;;;;;;1.48;1.38;;;;;;;22.95;24.67;97498.50;7396743;19;20021;-92
2024/01/17 07:33:58;;;;;;;2.90;1.85;;;;;;;23.49;24.42;97498.19;7394594;19;20082;-92
2024/01/17 07:36:24;;;;;;;4.00;1.77;;;;;;;23.80;24.05;97493.63;7392854;19;20030;-92
2024/01/17 07:38:50;;;;;;;7.00;2.28;;;;;;;23.53;24.22;97496.34;7395059;19;20025;-92
2024/01/17 07:41:16;;;;;;;1.08;0.95;;;;;;;24.01;23.61;97496.28;7394954;19;20382;-92
2024/01/17 07:43:43;;;;;;;2.80;1.75;;;;;;;23.99;23.36;97498.25;7392677;19;20006;-92
2024/01/17 07:46:12;;;;;;;3.00;1.95;;;;;;;23.55;23.84;97496.44;7397590;19;20022;-92
2024/01/17 07:48:38;;;;;;;0.68;0.50;;;;;;;23.23;24.36;97505.88;7396836;19;20022;-92
2024/01/17 07:51:05;;;;;;;0.68;0.68;;;;;;;23.85;23.82;97495.34;7389769;19;20017;-92
2024/01/17 07:53:31;;;;;;;1.33;1.23;;;;;;;26.30;22.21;97501.16;7394120;19;20015;-91
2024/01/17 07:55:59;;;;;;;2.00;1.60;;;;;;;25.56;22.23;97501.81;7387089;19;20115;-92
2024/01/17 07:58:25;;;;;;;0.60;0.55;;;;;;;25.22;22.50;97502.88;7387397;19;20513;-92
2024/01/17 08:00:51;;;;;;;3.00;1.83;;;;;;;25.49;22.44;97496.47;7391155;19;20006;-92
2024/01/17 08:03:17;;;;;;;1.13;0.45;;;;;;;25.53;21.92;97497.38;7390845;19;20442;-92
2024/01/17 08:05:43;;;;;;;0.73;0.63;;;;;;;25.42;22.22;97489.72;7391630;19;20022;-91
2024/01/17 08:08:11;;;;;;;0.82;0.80;;;;;;;25.38;22.07;97503.69;7393697;19;20014;-92
2024/01/17 08:10:37;;;;;;;4.28;0.85;;;;;;;24.75;22.35;97513.91;7398419;19;20344;-92
2024/01/17 08:13:04;;;;;;;0.55;0.55;;;;;;;22.84;23.87;97510.59;7391623;19;20476;-92
2024/01/17 08:15:31;;;;;;;5.80;1.90;;;;;;;21.73;24.66;97506.34;7392641;19;20022;-92
2024/01/17 08:17:57;;;;;;;0.28;0.28;;;;;;;21.24;25.13;97518.63;7390353;19;20045;-90
2024/01/17 08:20:23;;;;;;;0.85;0.85;;;;;;;22.13;24.47;97505.41;7394166;19;20038;-92
2024/01/17 08:22:49;;;;;;;1.45;0.98;;;;;;;23.63;23.18;97505.44;7391144;19;20019;-90
2024/01/17 08:25:15;;;;;;;26.85;3.15;;;;;;;22.60;24.21;97510.59;7392808;19;20014;-92
2024/01/17 08:27:42;;;;;;;1.30;0.50;;;;;;;22.72;23.95;97504.19;7393668;19;20022;-91
2024/01/17 08:30:09;;;;;;;9.55;3.92;;;;;;;22.33;24.11;97506.66;7396210;19;20014;-91
2024/01/17 08:32:36;;;;;;;0.93;0.93;;;;;;;22.21;24.33;97503.84;7392530;19;20010;-91
2024/01/17 08:35:03;;;;;;;4.90;1.13;;;;;;;20.79;25.45;97504.22;7390817;19;20007;-91
2024/01/17 08:37:29;;;;;;;2.83;0.88;;;;;;;22.69;24.07;97500.47;7393947;19;20476;-91
2024/01/17 08:39:55;;;;;;;10.95;2.10;;;;;;;22.79;24.02;97503.94;7395324;19;20014;-91
2024/01/17 08:42:22;;;;;;;0.80;0.80;;;;;;;22.92;23.61;97511.06;7391504;19;20015;-91
2024/01/17 08:44:48;;;;;;;1.00;1.00;;;;;;;22.89;23.93;97506.66;7396496;19;20014;-91
2024/01/17 08:47:14;;;;;;;7.03;0.50;;;;;;;22.68;23.54;97504.66;7393634;19;20474;-91
2024/01/17 08:49:40;;;;;;;3.78;0.88;;;;;;;22.41;24.11;97505.13;7394358;19;20011;-91
2024/01/17 08:52:07;;;;;;;5.57;2.45;;;;;;;22.44;24.12;97509.53;7393227;19;20025;-91
2024/01/17 08:54:34;;;;;;;0.57;0.57;;;;;;;22.26;23.88;97511.22;7391585;19;20137;-90
2024/01/17 08:57:02;;;;;;;4.07;0.95;;;;;;;22.12;24.07;97513.16;7390879;19;20548;-91
2024/01/17 08:59:28;;;;;;;0.55;0.55;;;;;;;22.27;23.95;97509.88;7393676;19;20037;-90
2024/01/17 09:01:56;;;;;;;2.53;1.27;;;;;;;22.31;23.87;97501.63;7394144;19;20010;-91
2024/01/17 09:04:23;;;;;;;7.43;1.73;;;;;;;22.53;24.15;97499.44;7390955;19;20495;-91
2024/01/17 09:06:50;;;;;;;4.28;1.38;;;;;;;22.49;23.68;97505.63;7392899;19;20029;-92
2024/01/17 09:09:16;;;;;;;1.65;1.20;;;;;;;22.66;23.94;97495.28;7392334;19;20332;-91
2024/01/17 09:11:42;;;;;;;0.70;0.70;;;;;;;22.62;23.92;97507.13;7392098;19;20035;-91
2024/01/17 09:14:10;;;;;;;1.23;0.47;;;;;;;22.64;24.18;97510.09;7389239;19;20015;-92
2024/01/17 09:16:36;;;;;;;1.67;1.38;;;;;;;22.69;24.06;97499.72;7391422;19;20018;-92
2024/01/17 09:19:03;;;;;;;2.55;1.23;;;;;;;22.80;23.95;97499.00;7391629;19;20078;-91
2024/01/17 09:21:30;;;;;;;3.30;1.30;;;;;;;22.93;23.59;97504.06;7391947;19;20019;-91
2024/01/17 09:23:56;;;;;;;4.90;1.20;;;;;;;23.20;23.38;97501.44;7389163;19;20051;-91
2024/01/17 09:26:22;;;;;;;1.88;1.27;;;;;;;23.31;23.37;97506.34;7391096;19;20081;-92
2024/01/17 09:28:48;;;;;;;9.38;0.98;;;;;;;23.22;23.67;97498.72;7391312;19;20392;-92
2024/01/17 09:31:14;;;;;;;2.58;1.30;;;;;;;23.43;23.35;97512.06;7389636;19;20031;-92
2024/01/17 09:33:40;;;;;;;0.88;0.88;;;;;;;23.33;23.36;97509.34;7387331;19;20396;-92
2024/01/17 09:36:06;;;;;;;4.30;2.28;;;;;;;23.30;23.64;97513.41;7389152;19;20054;-92
2024/01/17 09:38:32;;;;;;;1.17;1.17;;;;;;;22.92;23.55;97514.66;7395114;19;20010;-91
2024/01/17 09:40:59;;;;;;;0.80;0.80;;;;;;;22.90;23.60;97513.78;7390705;19;20479;-92
2024/01/17 09:43:26;;;;;;;0.45;0.45;;;;;;;22.83;23.85;97509.09;7387859;19;20023;-91
2024/01/17 09:45:55;;;;;;;1.67;0.70;;;;;;;23.07;23.56;97497.13;7390258;19;20037;-92
2024/01/17 09:48:25;;;;;;;2.55;1.88;;;;;;;23.30;23.76;97504.88;7392205;19;20035;-92
2024/01/17 09:50:51;;;;;;;7.28;1.85;;;;;;;23.34;23.35;97499.47;7391042;19;20018;-92
2024/01/17 09:53:25;;;;;;;5.40;1.58;;;;;;;23.46;23.26;97497.34;7387757;19;20463;-92
2024/01/17 09:55:53;;;;;;;9.07;1.88;;;;;;;23.39;23.74;97495.50;7390532;19;20020;-92
2024/01/17 09:58:19;;;;;;;2.92;0.80;;;;;;;22.56;24.08;97503.91;7388486;19;20015;-91
2024/01/17 10:00:48;;;;;;;4.60;1.27;;;;;;;22.56;24.41;97498.97;7389031;19;20025;-91
2024/01/17 10:03:20;;;;;;;1.92;1.63;;;;;;;21.63;24.69;97512.09;7387914;19;20015;-91
2024/01/17 10:05:50;;;;;;;2.33;2.00;;;;;;;21.38;24.92;97502.56;7391188;19;20015;-91
2024/01/17 10:08:18;;;;;;;4.63;1.20;;;;;;;21.25;25.18;97514.44;7394017;19;20029;-91
2024/01/17 10:10:44;;;;;;;4.53;1.67;;;;;;;22.66;24.01;97512.31;7390238;19;20006;-93
2024/01/17 10:13:11;;;;;;;0.82;0.82;;;;;;;23.21;23.88;97508.59;7387078;19;20014;-92
2024/01/17 10:15:45;;;;;;;4.05;2.00;;;;;;;23.22;23.80;97510.81;7389115;19;20019;-91
2024/01/17 10:18:12;;;;;;;5.57;2.00;;;;;;;23.24;23.98;97519.44;7389039;19;20042;-92
2024/01/17 10:20:38;;;;;;;2.65;0.85;;;;;;;21.96;24.65;97514.94;7387301;19;20167;-92
2024/01/17 10:23:08;;;;;;;4.85;1.38;;;;;;;20.88;25.73;97523.25;7391862;19;20018;-93
2024/01/17 10:25:41;;;;;;;3.38;2.28;;;;;;;21.13;25.08;97532.09;7390321;19;20035;-92
2024/01/17 10:28:08;;;;;;;2.50;1.85;;;;;;;19.56;26.86;97531.38;7390150;19;20017;-92
2024/01/17 10:30:37;;;;;;;1.95;1.65;;;;;;;19.28;26.74;97535.63;7391195;19;20011;-92
2024/01/17 10:33:04;;;;;;;3.55;2.53;;;;;;;21.14;25.77;97527.91;7389614;19;20373;-94
2024/01/17 10:35:30;;;;;;;4.13;1.63;;;;;;;20.92;25.91;97529.19;7389041;19;20021;-94
2024/01/17 10:37:57;;;;;;;2.08;1.48;;;;;;;19.38;27.11;97538.50;7392719;19;20015;-93
2024/01/17 10:40:23;;;;;;;6.85;2.03;;;;;;;19.34;26.95;97541.75;7395524;19;20047;-93
2024/01/17 10:43:04;;;;;;;4.20;0.88;;;;;;;19.31;26.90;97539.34;7390519;19;20014;-92
2024/01/17 10:45:34;;;;;;;4.55;0.82;;;;;;;21.44;25.41;97543.38;7397187;19;20022;-93
2024/01/17 10:48:01;;;;;;;3.13;1.83;;;;;;;22.08;24.83;97529.91;7396959;19;20019;-93
2024/01/17 10:50:28;;;;;;;8.88;1.75;;;;;;;21.23;25.49;97548.28;7403234;19;20035;-93
2024/01/17 10:53:01;;;;;;;0.70;0.70;;;;;;;21.53;25.43;97545.41;7400085;19;20038;-94
2024/01/17 10:55:29;;;;;;;1.38;1.27;;;;;;;20.57;26.08;97538.72;7395490;19;20019;-94
2024/01/17 10:58:01;;;;;;;4.38;2.20;;;;;;;19.75;27.05;97542.69;7397315;19;20050;-81
2024/01/17 11:00:31;;;;;;;4.43;2.10;;;;;;;19.60;26.90;97549.38;7403480;19;20488;-93
2024/01/17 11:02:59;;;;;;;1.08;0.70;;;;;;;19.65;26.97;97542.69;7397362;19;20053;-94
2024/01/17 11:05:33;;;;;;;4.13;1.35;;;;;;;21.06;25.93;97544.34;7399408;19;20014;-93
2024/01/17 11:08:00;;;;;;;0.68;0.68;;;;;;;21.04;26.31;97540.63;7400754;19;20019;-93
2024/01/17 11:10:28;;;;;;;1.92;1.38;;;;;;;20.07;27.23;97536.59;7400308;19;20019;-85
2024/01/17 11:12:55;;;;;;;5.82;0.80;;;;;;;20.27;27.03;97540.16;7396841;19;20025;-93
2024/01/17 11:15:24;;;;;;;0.32;0.32;;;;;;;19.93;27.60;97540.44;7393701;19;20070;-94
2024/01/17 11:17:53;;;;;;;1.75;1.35;;;;;;;20.03;27.21;97539.09;7395890;19;20304;-92
2024/01/17 11:20:19;;;;;;;1.05;1.05;;;;;;;20.00;27.43;97536.72;7401234;19;20022;-92
2024/01/17 11:22:48;;;;;;;2.17;1.45;;;;;;;19.94;27.76;97533.47;7395976;19;20018;-92
2024/01/17 11:25:26;;;;;;;11.10;0.98;;;;;;;19.94;27.68;97528.56;7395180;19;20017;-92
2024/01/17 11:28:06;;;;;;;1.35;0.82;;;;;;;21.17;26.57;97525.22;7396846;19;20015;-93
2024/01/17 11:30:55;;;;;;;0.80;0.63;;;;;;;21.52;26.24;97520.53;7400477;19;20022;-92
2024/01/17 11:33:21;;;;;;;4.95;0.90;;;;;;;21.52;26.49;97526.19;7393912;19;20036;-93